createdAt,value
2023-02-26T00:02:56.302Z,2.33
2023-02-26T00:05:23.042Z,2.20
2023-02-26T00:07:49.986Z,2.10
2023-02-26T00:10:16.802Z,2.20
2023-02-26T00:12:44.443Z,2.80
2023-02-26T00:15:17.726Z,2.50
2023-02-26T00:17:58.687Z,2.80
2023-02-26T00:20:26.482Z,2.30
2023-02-26T00:22:53.569Z,2.20
2023-02-26T00:25:20.266Z,2.37
2023-02-26T00:27:47.305Z,3.03
2023-02-26T00:30:14.269Z,2.10
2023-02-26T00:32:41.538Z,2.43
2023-02-26T00:35:13.009Z,2.10
2023-02-26T00:37:53.527Z,2.03
2023-02-26T00:40:41.299Z,2.03
2023-02-26T00:43:13.702Z,2.37
2023-02-26T00:45:51.341Z,3.10
2023-02-26T00:48:55.673Z,3.03
2023-02-26T00:51:40.748Z,2.60
2023-02-26T00:54:19.612Z,2.77
2023-02-26T00:56:46.497Z,2.87
2023-02-26T00:59:13.225Z,2.50
2023-02-26T01:01:40.032Z,2.20
2023-02-26T01:04:07.200Z,2.50
2023-02-26T01:06:38.069Z,2.40
2023-02-26T01:09:08.037Z,2.60
2023-02-26T01:11:36.030Z,2.47
2023-02-26T01:14:04.298Z,3.03
2023-02-26T01:16:37.284Z,2.90
2023-02-26T01:19:17.853Z,2.57
2023-02-26T01:21:50.967Z,2.70
2023-02-26T01:24:19.853Z,2.20
2023-02-26T01:26:49.877Z,2.50
2023-02-26T01:29:16.848Z,2.30
2023-02-26T01:32:21.216Z,2.30
2023-02-26T01:35:02.648Z,2.30
2023-02-26T01:37:56.055Z,2.47
2023-02-26T01:40:34.876Z,2.67
2023-02-26T01:43:14.688Z,2.43
2023-02-26T01:46:09.194Z,2.20
2023-02-26T01:48:57.860Z,2.40
2023-02-26T01:51:50.443Z,2.20
2023-02-26T01:54:21.720Z,2.60
2023-02-26T01:56:52.863Z,2.03
2023-02-26T01:59:24.518Z,2.03
2023-02-26T02:01:54.202Z,2.93
2023-02-26T02:04:21.895Z,2.63
2023-02-26T02:06:49.110Z,2.43
2023-02-26T02:09:15.985Z,2.57
2023-02-26T02:12:21.181Z,2.53
2023-02-26T02:15:05.979Z,2.63
2023-02-26T02:18:04.920Z,2.20
2023-02-26T02:20:43.348Z,2.10
2023-02-26T02:23:17.619Z,2.17
2023-02-26T02:25:59.565Z,2.20
2023-02-26T02:28:44.108Z,2.30
2023-02-26T02:31:26.922Z,2.30
2023-02-26T02:34:04.246Z,2.20
2023-02-26T02:37:01.904Z,2.47
2023-02-26T02:39:33.264Z,2.40
2023-02-26T02:42:05.760Z,2.67
2023-02-26T02:44:37.625Z,2.50
2023-02-26T02:47:06.161Z,2.20
2023-02-26T02:49:43.642Z,2.80
2023-02-26T02:52:22.661Z,2.20
2023-02-26T02:55:02.881Z,2.00
2023-02-26T02:57:45.668Z,2.57
2023-02-26T03:00:14.276Z,2.10
2023-02-26T03:02:47.106Z,2.10
2023-02-26T03:05:15.195Z,2.40
2023-02-26T03:07:57.108Z,1.87
2023-02-26T03:10:24.024Z,2.60
2023-02-26T03:12:50.980Z,2.57
2023-02-26T03:15:29.284Z,2.13
2023-02-26T03:18:06.498Z,2.17
2023-02-26T03:20:46.381Z,2.30
2023-02-26T03:23:19.349Z,1.87
2023-02-26T03:25:55.246Z,2.10
2023-02-26T03:28:43.900Z,2.50
2023-02-26T03:31:21.644Z,2.30
2023-02-26T03:33:54.528Z,2.47
2023-02-26T03:36:36.205Z,2.37
2023-02-26T03:39:06.895Z,2.20
2023-02-26T03:41:39.720Z,2.17
2023-02-26T03:44:31.065Z,2.13
2023-02-26T03:47:11.732Z,2.00
2023-02-26T03:50:02.647Z,2.10
2023-02-26T03:52:32.792Z,2.40
2023-02-26T03:55:13.987Z,2.40
2023-02-26T03:57:40.923Z,2.10
2023-02-26T04:00:10.401Z,2.30
2023-02-26T04:02:55.626Z,2.20
2023-02-26T04:05:30.584Z,2.50
2023-02-26T04:07:58.102Z,2.80
2023-02-26T04:10:45.911Z,2.50
2023-02-26T04:13:12.706Z,2.87
2023-02-26T04:15:39.467Z,3.03
2023-02-26T04:18:06.291Z,2.47
2023-02-26T04:20:33.035Z,2.70
2023-02-26T04:22:59.836Z,2.67
2023-02-26T04:25:26.662Z,2.20
2023-02-26T04:27:53.419Z,1.93
2023-02-26T04:30:20.141Z,2.57
2023-02-26T04:32:46.945Z,2.20
2023-02-26T04:35:13.687Z,2.63
2023-02-26T04:37:40.432Z,2.40
2023-02-26T04:40:08.453Z,2.27
2023-02-26T04:42:35.181Z,2.20
2023-02-26T04:45:02.122Z,2.30
2023-02-26T04:47:28.863Z,2.40
2023-02-26T04:49:55.587Z,2.57
2023-02-26T04:52:22.366Z,2.33
2023-02-26T04:54:49.212Z,2.57
2023-02-26T04:57:16.001Z,2.60
2023-02-26T04:59:42.738Z,2.20
2023-02-26T05:02:09.594Z,2.57
2023-02-26T05:04:36.380Z,2.73
2023-02-26T05:07:03.319Z,2.33
2023-02-26T05:09:30.051Z,3.60
2023-02-26T05:11:56.768Z,4.00
2023-02-26T05:14:23.608Z,3.10
2023-02-26T05:16:50.476Z,2.30
2023-02-26T05:19:17.193Z,2.50
2023-02-26T05:21:43.873Z,2.43
2023-02-26T05:24:10.796Z,2.27
2023-02-26T05:26:37.497Z,2.40
2023-02-26T05:29:05.246Z,2.33
2023-02-26T05:31:32.672Z,2.23
2023-02-26T05:33:59.617Z,2.87
2023-02-26T05:36:26.644Z,2.33
2023-02-26T05:38:54.143Z,2.33
2023-02-26T05:41:21.047Z,2.40
2023-02-26T05:43:47.727Z,2.37
2023-02-26T05:46:14.596Z,2.70
2023-02-26T05:48:41.286Z,2.70
2023-02-26T05:51:07.989Z,2.37
2023-02-26T05:53:34.882Z,2.90
2023-02-26T05:56:01.734Z,2.90
2023-02-26T05:58:28.750Z,2.80
2023-02-26T06:00:55.406Z,2.80
2023-02-26T06:03:22.139Z,2.30
2023-02-26T06:05:48.897Z,2.50
2023-02-26T06:08:16.520Z,2.70
2023-02-26T06:10:43.739Z,2.57
2023-02-26T06:13:10.499Z,2.57
2023-02-26T06:15:37.317Z,2.43
2023-02-26T06:18:04.184Z,2.93
2023-02-26T06:20:30.991Z,3.43
2023-02-26T06:22:57.743Z,2.80
2023-02-26T06:25:24.516Z,3.03
2023-02-26T06:27:51.328Z,2.70
2023-02-26T06:30:18.325Z,3.47
2023-02-26T06:32:45.262Z,2.90
2023-02-26T06:35:11.980Z,3.23
2023-02-26T06:37:38.697Z,2.73
2023-02-26T06:40:06.407Z,3.10
2023-02-26T06:42:33.106Z,3.37
2023-02-26T06:44:59.746Z,2.67
2023-02-26T06:47:26.522Z,3.00
2023-02-26T06:49:53.179Z,2.70
2023-02-26T06:52:19.843Z,3.00
2023-02-26T06:54:46.514Z,3.03
2023-02-26T06:57:13.239Z,3.60
2023-02-26T06:59:40.004Z,3.53
2023-02-26T07:02:06.817Z,3.37
2023-02-26T07:04:33.628Z,3.33
2023-02-26T07:07:00.324Z,2.90
2023-02-26T07:09:27.076Z,2.97
2023-02-26T07:11:53.764Z,2.73
2023-02-26T07:14:20.560Z,2.80
2023-02-26T07:16:47.319Z,3.30
2023-02-26T07:19:14.111Z,3.33
2023-02-26T07:21:40.826Z,3.60
2023-02-26T07:24:08.012Z,3.00
2023-02-26T07:26:34.682Z,2.67
2023-02-26T07:29:01.410Z,2.10
2023-02-26T07:31:28.197Z,3.00
2023-02-26T07:33:55.011Z,2.37
2023-02-26T07:36:21.720Z,2.73
2023-02-26T07:38:48.392Z,2.40
2023-02-26T07:41:15.066Z,2.70
2023-02-26T07:43:42.663Z,2.57
2023-02-26T07:46:09.536Z,2.67
2023-02-26T07:48:37.194Z,2.53
2023-02-26T07:51:04.372Z,2.50
2023-02-26T07:53:31.087Z,2.50
2023-02-26T07:55:57.828Z,2.30
2023-02-26T07:58:24.488Z,2.90
2023-02-26T08:00:52.737Z,3.07
2023-02-26T08:03:20.326Z,3.47
2023-02-26T08:05:47.085Z,3.33
2023-02-26T08:08:14.045Z,2.60
2023-02-26T08:10:42.251Z,2.87
2023-02-26T08:13:09.410Z,3.10
2023-02-26T08:15:36.309Z,2.87
2023-02-26T08:18:03.342Z,3.00
2023-02-26T08:20:30.050Z,2.40
2023-02-26T08:22:56.757Z,2.47
2023-02-26T08:25:23.429Z,2.87
2023-02-26T08:27:50.294Z,2.80
2023-02-26T08:30:17.280Z,2.67
2023-02-26T08:32:45.958Z,2.93
2023-02-26T08:35:12.780Z,2.60
2023-02-26T08:37:39.617Z,2.37
2023-02-26T08:40:08.463Z,2.73
2023-02-26T08:42:35.578Z,2.60
2023-02-26T08:45:02.549Z,2.60
2023-02-26T08:47:29.406Z,2.50
2023-02-26T08:49:56.565Z,2.80
2023-02-26T08:52:23.263Z,2.70
2023-02-26T08:54:50.087Z,2.57
2023-02-26T08:57:17.225Z,2.17
2023-02-26T08:59:43.905Z,2.63
2023-02-26T09:02:12.062Z,2.20
2023-02-26T09:04:38.859Z,2.23
2023-02-26T09:07:05.532Z,2.63
2023-02-26T09:09:32.494Z,2.63
2023-02-26T09:11:59.359Z,2.73
2023-02-26T09:14:26.081Z,2.53
2023-02-26T09:16:53.099Z,2.40
2023-02-26T09:19:19.930Z,2.20
2023-02-26T09:21:46.638Z,2.30
2023-02-26T09:24:13.414Z,2.20
2023-02-26T09:26:40.132Z,2.00
2023-02-26T09:29:07.049Z,2.13
2023-02-26T09:31:34.006Z,2.63
2023-02-26T09:34:00.808Z,2.33
2023-02-26T09:36:28.239Z,1.70
2023-02-26T09:38:55.087Z,2.13
2023-02-26T09:41:27.800Z,2.23
2023-02-26T09:44:00.414Z,1.90
2023-02-26T09:46:33.050Z,2.00
2023-02-26T09:49:19.186Z,2.33
2023-02-26T09:51:50.532Z,2.87
2023-02-26T09:54:24.470Z,2.10
2023-02-26T09:56:53.674Z,2.60
2023-02-26T09:59:20.451Z,2.50
2023-02-26T10:02:12.875Z,2.30
2023-02-26T10:04:59.668Z,2.10
2023-02-26T10:07:33.090Z,2.80
2023-02-26T10:10:22.052Z,2.63
2023-02-26T10:12:51.446Z,2.20
2023-02-26T10:15:26.057Z,2.50
2023-02-26T10:18:01.432Z,2.20
2023-02-26T10:20:36.002Z,2.30
2023-02-26T10:23:19.901Z,2.10
2023-02-26T10:25:52.483Z,2.20
2023-02-26T10:28:44.089Z,2.40
2023-02-26T10:31:22.923Z,2.10
2023-02-26T10:34:00.244Z,2.53
2023-02-26T10:36:32.723Z,2.30
2023-02-26T10:39:22.632Z,2.23
2023-02-26T10:41:51.462Z,2.50
2023-02-26T10:44:43.961Z,2.37
2023-02-26T10:47:20.017Z,2.40
2023-02-26T10:49:54.791Z,2.63
2023-02-26T10:52:24.995Z,2.30
2023-02-26T10:55:18.934Z,2.30
2023-02-26T10:58:15.885Z,2.70
2023-02-26T11:00:45.186Z,1.80
2023-02-26T11:03:20.867Z,2.37
2023-02-26T11:05:48.927Z,2.10
2023-02-26T11:08:28.729Z,2.50
2023-02-26T11:10:58.093Z,2.10
2023-02-26T11:13:27.326Z,2.10
2023-02-26T11:15:56.492Z,2.10
2023-02-26T11:18:31.610Z,2.30
2023-02-26T11:21:00.475Z,2.20
2023-02-26T11:23:31.102Z,2.50
2023-02-26T11:26:07.120Z,2.03
2023-02-26T11:28:42.403Z,2.03
2023-02-26T11:31:12.719Z,2.13
2023-02-26T11:33:45.126Z,2.17
2023-02-26T11:36:16.496Z,2.23
2023-02-26T11:38:53.516Z,1.73
2023-02-26T11:41:20.331Z,2.20
2023-02-26T11:43:59.854Z,2.17
2023-02-26T11:46:27.283Z,2.17
2023-02-26T11:48:58.183Z,2.30
2023-02-26T11:51:27.367Z,2.17
2023-02-26T11:53:56.764Z,2.17
2023-02-26T11:56:32.130Z,2.20
2023-02-26T11:59:08.649Z,2.17
2023-02-26T12:01:38.016Z,1.80
2023-02-26T12:04:04.838Z,2.50
2023-02-26T12:06:31.794Z,2.47
2023-02-26T12:08:58.891Z,2.47
2023-02-26T12:11:59.918Z,1.90
2023-02-26T12:14:26.687Z,1.90
2023-02-26T12:17:27.500Z,2.10
2023-02-26T12:20:35.079Z,2.00
2023-02-26T12:23:16.728Z,1.90
2023-02-26T12:26:08.653Z,2.03
2023-02-26T12:29:01.679Z,2.03
2023-02-26T12:32:18.960Z,2.20
2023-02-26T12:35:22.955Z,2.00
2023-02-26T12:38:10.934Z,2.07
2023-02-26T12:41:09.284Z,1.83
2023-02-26T12:43:49.688Z,2.27
2023-02-26T12:46:25.435Z,2.13
2023-02-26T12:49:30.526Z,1.90
2023-02-26T12:52:34.883Z,1.60
2023-02-26T12:55:20.186Z,2.00
2023-02-26T12:58:23.756Z,1.80
2023-02-26T13:01:06.668Z,1.73
2023-02-26T13:03:51.833Z,1.70
2023-02-26T13:06:27.716Z,1.80
2023-02-26T13:09:32.000Z,1.57
2023-02-26T13:12:09.621Z,2.00
2023-02-26T13:15:27.221Z,1.90
2023-02-26T13:18:04.283Z,1.53
2023-02-26T13:20:33.107Z,2.03
2023-02-26T13:23:03.407Z,1.70
2023-02-26T13:25:51.858Z,1.70
2023-02-26T13:28:25.714Z,2.10
2023-02-26T13:30:58.673Z,1.80
2023-02-26T13:33:33.494Z,1.80
2023-02-26T13:36:02.245Z,1.70
2023-02-26T13:38:32.116Z,1.60
2023-02-26T13:41:10.168Z,1.80
2023-02-26T13:44:26.625Z,1.93
2023-02-26T13:47:12.021Z,1.80
2023-02-26T13:49:53.579Z,1.60
2023-02-26T13:52:29.880Z,1.50
2023-02-26T13:54:59.403Z,1.50
2023-02-26T13:57:35.210Z,1.83
2023-02-26T14:00:28.277Z,1.80
2023-02-26T14:03:17.799Z,1.77
2023-02-26T14:06:07.961Z,1.70
2023-02-26T14:08:40.373Z,1.40
2023-02-26T14:11:35.351Z,1.70
2023-02-26T14:14:12.137Z,1.57
2023-02-26T14:16:44.431Z,1.50
2023-02-26T14:19:21.975Z,1.40
2023-02-26T14:21:53.229Z,1.63
2023-02-26T14:24:37.260Z,1.70
2023-02-26T14:27:12.848Z,1.70
2023-02-26T14:29:43.075Z,1.90
2023-02-26T14:32:15.689Z,1.80
2023-02-26T14:34:55.256Z,1.67
2023-02-26T14:37:27.109Z,1.40
2023-02-26T14:39:53.813Z,1.80
2023-02-26T14:42:25.724Z,1.57
2023-02-26T14:45:04.009Z,1.77
2023-02-26T14:47:31.432Z,1.73
2023-02-26T14:50:00.471Z,1.80
2023-02-26T14:52:51.456Z,2.00
2023-02-26T14:55:39.908Z,2.10
2023-02-26T14:58:22.270Z,2.13
2023-02-26T15:00:52.623Z,1.87
2023-02-26T15:03:52.479Z,2.40
2023-02-26T15:06:34.912Z,2.10
2023-02-26T15:09:23.288Z,1.93
2023-02-26T15:12:05.220Z,2.47
2023-02-26T15:15:07.335Z,2.30
2023-02-26T15:17:58.899Z,2.70
2023-02-26T15:20:37.490Z,2.27
2023-02-26T15:23:22.629Z,2.07
2023-02-26T15:25:50.902Z,2.60
2023-02-26T15:28:33.017Z,2.70
2023-02-26T15:31:01.498Z,2.37
2023-02-26T15:33:29.927Z,1.77
2023-02-26T15:35:58.724Z,1.93
2023-02-26T15:38:26.067Z,1.43
2023-02-26T15:40:56.574Z,1.77
2023-02-26T15:43:26.962Z,1.90
2023-02-26T15:45:56.937Z,2.20
2023-02-26T15:48:29.093Z,1.97
2023-02-26T15:50:59.868Z,1.80
2023-02-26T15:53:43.706Z,2.03
2023-02-26T15:56:19.573Z,1.50
2023-02-26T15:58:51.772Z,1.67
2023-02-26T16:01:23.617Z,1.47
2023-02-26T16:03:52.682Z,1.60
2023-02-26T16:06:45.976Z,1.90
2023-02-26T16:09:19.938Z,1.50
2023-02-26T16:11:48.649Z,1.70
2023-02-26T16:14:24.523Z,1.43
2023-02-26T16:16:54.182Z,1.50
2023-02-26T16:19:37.906Z,2.13
2023-02-26T16:22:21.111Z,1.50
2023-02-26T16:24:57.827Z,1.33
2023-02-26T16:27:28.150Z,1.50
2023-02-26T16:29:57.295Z,1.40
2023-02-26T16:32:26.524Z,1.43
2023-02-26T16:34:55.831Z,1.50
2023-02-26T16:37:22.464Z,1.70
2023-02-26T16:39:57.310Z,2.03
2023-02-26T16:42:50.554Z,1.30
2023-02-26T16:45:26.119Z,1.60
2023-02-26T16:47:56.064Z,1.60
2023-02-26T16:50:28.418Z,1.80
2023-02-26T16:53:04.305Z,1.60
2023-02-26T16:55:33.940Z,1.70
2023-02-26T16:58:04.562Z,1.50
2023-02-26T17:00:33.823Z,1.60
2023-02-26T17:03:27.179Z,1.40
2023-02-26T17:06:02.176Z,1.47
2023-02-26T17:08:42.238Z,1.67
2023-02-26T17:11:20.392Z,1.37
2023-02-26T17:14:03.460Z,1.60
2023-02-26T17:16:30.252Z,1.50
2023-02-26T17:18:57.178Z,1.77
2023-02-26T17:21:24.190Z,1.77
2023-02-26T17:23:51.188Z,1.60
2023-02-26T17:26:17.927Z,2.20
2023-02-26T17:28:44.737Z,1.53
2023-02-26T17:31:13.159Z,1.67
2023-02-26T17:33:45.040Z,1.63
2023-02-26T17:36:18.699Z,1.43
2023-02-26T17:38:47.209Z,1.50
2023-02-26T17:41:19.191Z,1.40
2023-02-26T17:43:45.920Z,1.70
2023-02-26T17:46:13.278Z,1.43
2023-02-26T17:48:40.470Z,1.50
2023-02-26T17:51:07.618Z,1.30
2023-02-26T17:53:40.926Z,1.60
2023-02-26T17:56:15.750Z,1.50
2023-02-26T17:58:42.946Z,1.60
2023-02-26T18:01:10.284Z,1.53
2023-02-26T18:03:38.173Z,1.63
2023-02-26T18:06:05.500Z,1.70
2023-02-26T18:08:37.057Z,1.90
2023-02-26T18:11:04.435Z,1.90
2023-02-26T18:13:31.566Z,1.50
2023-02-26T18:16:01.087Z,1.90
2023-02-26T18:18:28.529Z,1.97
2023-02-26T18:20:55.580Z,1.97
2023-02-26T18:23:22.271Z,1.60
2023-02-26T18:25:50.877Z,1.87
2023-02-26T18:28:21.156Z,1.93
2023-02-26T18:30:49.063Z,1.80
2023-02-26T18:33:18.917Z,2.03
2023-02-26T18:35:56.127Z,1.53
2023-02-26T18:38:25.688Z,1.60
2023-02-26T18:40:53.799Z,1.70
2023-02-26T18:43:21.033Z,1.80
2023-02-26T18:45:49.528Z,2.30
2023-02-26T18:48:19.454Z,1.70
2023-02-26T18:50:47.088Z,1.90
2023-02-26T18:53:16.990Z,2.10
2023-02-26T18:55:43.969Z,2.27
2023-02-26T18:58:10.945Z,1.73
2023-02-26T19:00:37.677Z,2.50
2023-02-26T19:03:04.398Z,2.03
2023-02-26T19:05:31.279Z,1.77
2023-02-26T19:07:58.094Z,2.20
2023-02-26T19:10:24.990Z,1.67
2023-02-26T19:12:51.844Z,1.97
2023-02-26T19:15:19.025Z,1.70
2023-02-26T19:17:46.625Z,2.63
2023-02-26T19:20:14.329Z,2.10
2023-02-26T19:22:42.043Z,2.10
2023-02-26T19:25:09.778Z,1.70
2023-02-26T19:27:37.776Z,1.63
2023-02-26T19:30:05.969Z,2.10
2023-02-26T19:32:32.977Z,2.20
2023-02-26T19:35:00.358Z,2.10
2023-02-26T19:37:27.533Z,2.17
2023-02-26T19:39:54.258Z,1.87
2023-02-26T19:42:21.433Z,2.00
2023-02-26T19:44:48.202Z,2.10
2023-02-26T19:47:14.869Z,1.87
2023-02-26T19:49:41.602Z,2.70
2023-02-26T19:52:08.684Z,2.30
2023-02-26T19:54:35.848Z,1.77
2023-02-26T19:57:02.536Z,2.03
2023-02-26T19:59:29.514Z,2.50
2023-02-26T20:01:56.443Z,2.13
2023-02-26T20:04:23.291Z,2.40
2023-02-26T20:06:50.066Z,2.43
2023-02-26T20:09:19.029Z,1.90
2023-02-26T20:11:46.170Z,2.57
2023-02-26T20:14:12.844Z,3.03
2023-02-26T20:16:39.662Z,2.40
2023-02-26T20:19:06.510Z,2.40
2023-02-26T20:21:33.314Z,1.90
2023-02-26T20:24:00.148Z,2.13
2023-02-26T20:26:26.893Z,2.10
2023-02-26T20:28:53.752Z,2.33
2023-02-26T20:31:20.686Z,2.23
2023-02-26T20:33:47.649Z,2.17
2023-02-26T20:36:14.419Z,1.93
2023-02-26T20:38:42.782Z,1.80
2023-02-26T20:41:10.048Z,2.10
2023-02-26T20:43:36.798Z,2.27
2023-02-26T20:46:03.892Z,2.13
2023-02-26T20:48:31.254Z,2.30
2023-02-26T20:51:02.588Z,2.17
2023-02-26T20:53:29.283Z,1.87
2023-02-26T20:55:56.469Z,2.03
2023-02-26T20:58:24.414Z,2.03
2023-02-26T21:00:52.434Z,2.60
2023-02-26T21:03:19.136Z,2.50
2023-02-26T21:05:47.117Z,2.20
2023-02-26T21:08:13.966Z,2.40
2023-02-26T21:10:41.222Z,2.83
2023-02-26T21:13:09.146Z,2.40
2023-02-26T21:15:36.916Z,2.53
2023-02-26T21:18:03.867Z,2.30
2023-02-26T21:20:31.057Z,2.40
2023-02-26T21:22:58.808Z,2.40
2023-02-26T21:25:25.745Z,2.20
2023-02-26T21:27:52.597Z,2.57
2023-02-26T21:30:19.982Z,2.00
2023-02-26T21:32:46.759Z,2.10
2023-02-26T21:35:16.010Z,2.23
2023-02-26T21:37:46.798Z,2.10
2023-02-26T21:40:15.135Z,2.13
2023-02-26T21:42:42.816Z,2.13
2023-02-26T21:45:10.563Z,2.10
2023-02-26T21:47:37.656Z,1.90
2023-02-26T21:50:05.856Z,2.10
2023-02-26T21:52:32.829Z,2.57
2023-02-26T21:54:59.680Z,2.60
2023-02-26T21:57:27.180Z,2.20
2023-02-26T21:59:54.020Z,2.10
2023-02-26T22:02:21.110Z,2.30
2023-02-26T22:04:47.873Z,1.83
2023-02-26T22:07:14.688Z,2.50
2023-02-26T22:09:41.951Z,2.30
2023-02-26T22:12:08.847Z,2.20
2023-02-26T22:14:36.849Z,1.93
2023-02-26T22:17:03.795Z,2.20
2023-02-26T22:19:30.602Z,2.53
2023-02-26T22:21:57.521Z,2.10
2023-02-26T22:24:24.292Z,2.30
2023-02-26T22:26:51.058Z,2.20
2023-02-26T22:29:19.296Z,2.27
2023-02-26T22:31:47.474Z,2.23
2023-02-26T22:34:14.758Z,2.10
2023-02-26T22:36:41.680Z,2.20
2023-02-26T22:39:08.509Z,2.50
2023-02-26T22:41:36.085Z,2.10
2023-02-26T22:44:03.424Z,2.37
2023-02-26T22:46:30.229Z,2.00
2023-02-26T22:48:57.198Z,2.13
2023-02-26T22:51:24.666Z,2.27
2023-02-26T22:53:51.755Z,2.00
2023-02-26T22:56:18.494Z,2.30
2023-02-26T22:58:45.255Z,2.00
2023-02-26T23:01:12.340Z,2.30
2023-02-26T23:03:39.137Z,2.30
2023-02-26T23:06:06.613Z,2.33
2023-02-26T23:08:34.048Z,2.60
2023-02-26T23:11:02.462Z,2.47
2023-02-26T23:13:34.354Z,2.40
2023-02-26T23:16:06.843Z,2.27
2023-02-26T23:18:36.432Z,2.30
2023-02-26T23:21:05.595Z,2.33
2023-02-26T23:23:33.276Z,2.43
2023-02-26T23:26:00.172Z,2.70
2023-02-26T23:28:26.962Z,2.30
2023-02-26T23:30:54.070Z,2.23
2023-02-26T23:33:21.154Z,2.33
2023-02-26T23:35:48.168Z,2.40
2023-02-26T23:38:15.055Z,2.30
2023-02-26T23:40:42.037Z,2.40
2023-02-26T23:43:08.683Z,2.43
2023-02-26T23:45:35.427Z,2.33
2023-02-26T23:48:02.167Z,2.17
2023-02-26T23:50:28.892Z,2.20
2023-02-26T23:52:55.859Z,1.73
2023-02-26T23:55:22.595Z,2.03
2023-02-26T23:57:49.318Z,2.23
